createdAt,value
2018-04-11T00:01:47.158Z,98019
2018-04-11T00:03:53.026Z,98011
2018-04-11T00:05:58.551Z,98012
2018-04-11T00:08:04.196Z,98017
2018-04-11T00:10:10.305Z,98017
2018-04-11T00:12:16.435Z,98011
2018-04-11T00:14:22.408Z,98020
2018-04-11T00:16:28.863Z,98022
2018-04-11T00:18:34.826Z,98016
2018-04-11T00:20:40.063Z,98013
2018-04-11T00:22:45.607Z,98017
2018-04-11T00:24:51.343Z,98011
2018-04-11T00:26:57.138Z,98017
2018-04-11T00:29:03.038Z,98017
2018-04-11T00:31:09.198Z,98020
2018-04-11T00:33:15.234Z,98017
2018-04-11T00:35:21.261Z,98018
2018-04-11T00:37:27.582Z,98025
2018-04-11T00:39:33.418Z,98024
2018-04-11T00:41:39.883Z,98025
2018-04-11T00:43:45.730Z,98023
2018-04-11T00:45:51.577Z,98024
2018-04-11T00:47:56.937Z,98024
2018-04-11T00:50:02.684Z,98024
2018-04-11T00:52:08.436Z,98014
2018-04-11T00:54:14.280Z,98020
2018-04-11T00:56:21.046Z,98018
2018-04-11T00:58:27.077Z,98012
2018-04-11T01:00:32.377Z,98024
2018-04-11T01:02:37.953Z,98025
2018-04-11T01:04:43.194Z,98025
2018-04-11T01:06:49.221Z,98025
2018-04-11T01:08:55.520Z,98020
2018-04-11T01:11:00.943Z,98027
2018-04-11T01:13:07.006Z,98027
2018-04-11T01:15:12.337Z,98024
2018-04-11T01:17:18.098Z,98022
2018-04-11T01:19:24.021Z,98022
2018-04-11T01:21:30.318Z,98025
2018-04-11T01:23:36.211Z,98027
2018-04-11T01:25:42.429Z,98028
2018-04-11T01:27:48.292Z,98030
2018-04-11T01:29:53.614Z,98030
2018-04-11T01:31:59.801Z,98027
2018-04-11T01:34:05.597Z,98022
2018-04-11T01:36:10.883Z,98028
2018-04-11T01:38:16.851Z,98034
2018-04-11T01:40:22.758Z,98034
2018-04-11T01:42:28.620Z,98043
2018-04-11T01:44:34.757Z,98047
2018-04-11T01:46:40.507Z,98042
2018-04-11T01:48:46.127Z,98047
2018-04-11T01:50:52.252Z,98045
2018-04-11T01:52:58.237Z,98053
2018-04-11T01:55:03.844Z,98049
2018-04-11T01:57:10.078Z,98048
2018-04-11T01:59:15.570Z,98054
2018-04-11T02:01:21.576Z,98056
2018-04-11T02:03:27.186Z,98052
2018-04-11T02:05:33.333Z,98056
2018-04-11T02:07:39.386Z,98057
2018-04-11T02:09:45.296Z,98053
2018-04-11T02:11:52.210Z,98065
2018-04-11T02:13:58.871Z,98067
2018-04-11T02:16:04.893Z,98066
2018-04-11T02:18:10.401Z,98079
2018-04-11T02:20:16.750Z,98079
2018-04-11T02:22:22.410Z,98086
2018-04-11T02:24:28.358Z,98085
2018-04-11T02:26:34.729Z,98082
2018-04-11T02:28:40.431Z,98075
2018-04-11T02:30:46.291Z,98082
2018-04-11T02:32:52.622Z,98079
2018-04-11T02:34:58.574Z,98086
2018-04-11T02:37:05.047Z,98083
2018-04-11T02:39:11.203Z,98078
2018-04-11T02:41:17.594Z,98081
2018-04-11T02:43:22.801Z,98083
2018-04-11T02:45:29.291Z,98080
2018-04-11T02:47:35.188Z,98080
2018-04-11T02:49:41.287Z,98077
2018-04-11T02:51:53.228Z,98084
2018-04-11T02:53:59.034Z,98082
2018-04-11T02:56:04.394Z,98077
2018-04-11T02:58:09.966Z,98084
2018-04-11T03:00:15.390Z,98083
2018-04-11T03:02:21.229Z,98082
2018-04-11T03:04:27.120Z,98082
2018-04-11T03:06:33.636Z,98077
2018-04-11T03:08:40.116Z,98075
2018-04-11T03:10:45.985Z,98078
2018-04-11T03:12:51.347Z,98076
2018-04-11T03:14:56.958Z,98080
2018-04-11T03:17:03.191Z,98080
2018-04-11T03:19:08.714Z,98077
2018-04-11T03:21:14.119Z,98084
2018-04-11T03:23:20.115Z,98084
2018-04-11T03:25:25.727Z,98082
2018-04-11T03:27:31.093Z,98077
2018-04-11T03:29:36.784Z,98075
2018-04-11T03:31:42.506Z,98076
2018-04-11T03:33:47.786Z,98076
2018-04-11T03:35:53.911Z,98073
2018-04-11T03:37:59.746Z,98077
2018-04-11T03:40:06.101Z,98075
2018-04-11T03:42:11.841Z,98075
2018-04-11T03:44:17.710Z,98076
2018-04-11T03:46:23.760Z,98074
2018-04-11T03:48:29.661Z,98072
2018-04-11T03:50:35.678Z,98077
2018-04-11T03:52:41.369Z,98083
2018-04-11T03:54:47.158Z,98082
2018-04-11T03:56:52.747Z,98086
2018-04-11T03:58:59.109Z,98088
2018-04-11T04:01:05.376Z,98089
2018-04-11T04:03:11.614Z,98092
2018-04-11T04:05:16.893Z,98093
2018-04-11T04:07:22.553Z,98089
2018-04-11T04:09:27.849Z,98093
2018-04-11T04:11:33.466Z,98085
2018-04-11T04:13:47.188Z,98092
2018-04-11T04:16:03.261Z,98085
2018-04-11T04:19:17.067Z,98089
2018-04-11T04:21:22.486Z,98087
2018-04-11T04:23:27.766Z,98087
2018-04-11T04:25:33.632Z,98086
2018-04-11T04:27:38.985Z,98087
2018-04-11T04:29:44.313Z,98100
2018-04-11T04:31:49.922Z,98101
2018-04-11T04:33:55.161Z,98101
2018-04-11T04:36:00.606Z,98108
2018-04-11T04:38:05.846Z,98116
2018-04-11T04:40:11.559Z,98115
2018-04-11T04:42:16.810Z,98129
2018-04-11T04:44:22.055Z,98136
2018-04-11T04:46:27.622Z,98140
2018-04-11T04:48:32.872Z,98140
2018-04-11T04:50:38.358Z,98145
2018-04-11T04:52:44.462Z,98143
2018-04-11T04:54:49.747Z,98151
2018-04-11T04:56:55.102Z,98154
2018-04-11T04:59:00.762Z,98154
2018-04-11T05:01:06.394Z,98154
2018-04-11T05:03:12.408Z,98161
2018-04-11T05:05:18.506Z,98162
2018-04-11T05:07:23.969Z,98165
2018-04-11T05:09:29.150Z,98167
2018-04-11T05:11:35.091Z,98174
2018-04-11T05:13:40.530Z,98179
2018-04-11T05:15:46.389Z,98178
2018-04-11T05:17:52.713Z,98181
2018-04-11T05:19:58.503Z,98180
2018-04-11T05:22:03.897Z,98185
2018-04-11T05:24:09.888Z,98188
2018-04-11T05:26:15.158Z,98192
2018-04-11T05:28:20.638Z,98190
2018-04-11T05:30:26.182Z,98190
2018-04-11T05:32:32.131Z,98194
2018-04-11T05:34:37.486Z,98194
2018-04-11T05:36:43.127Z,98194
2018-04-11T05:38:48.342Z,98196
2018-04-11T05:40:53.596Z,98203
2018-04-11T05:42:59.114Z,98207
2018-04-11T05:45:04.370Z,98210
2018-04-11T05:47:09.883Z,98213
2018-04-11T05:49:15.443Z,98212
2018-04-11T05:51:20.717Z,98219
2018-04-11T05:53:26.055Z,98221
2018-04-11T05:55:31.599Z,98219
2018-04-11T05:57:36.970Z,98221
2018-04-11T05:59:42.333Z,98227
2018-04-11T06:01:48.685Z,98220
2018-04-11T06:03:53.998Z,98219
2018-04-11T06:05:59.358Z,98219
2018-04-11T06:08:09.215Z,98221
2018-04-11T06:10:15.002Z,98219
2018-04-11T06:12:20.277Z,98218
2018-04-11T06:14:25.817Z,98215
2018-04-11T06:16:31.127Z,98218
2018-04-11T06:18:36.415Z,98216
2018-04-11T06:20:41.966Z,98225
2018-04-11T06:22:47.278Z,98219
2018-04-11T06:24:52.962Z,98225
2018-04-11T06:26:59.270Z,98228
2018-04-11T06:29:04.645Z,98223
2018-04-11T06:31:10.747Z,98234
2018-04-11T06:33:16.340Z,98229
2018-04-11T06:35:22.122Z,98238
2018-04-11T06:37:27.482Z,98239
2018-04-11T06:39:33.557Z,98241
2018-04-11T06:41:38.980Z,98236
2018-04-11T06:43:47.389Z,98241
2018-04-11T06:45:53.582Z,98244
2018-04-11T06:47:58.926Z,98252
2018-04-11T06:50:04.227Z,98256
2018-04-11T06:52:10.582Z,98260
2018-04-11T06:54:15.907Z,98254
2018-04-11T06:56:21.246Z,98256
2018-04-11T06:58:27.126Z,98265
2018-04-11T07:00:32.420Z,98266
2018-04-11T07:02:37.909Z,98265
2018-04-11T07:04:43.462Z,98265
2018-04-11T07:06:49.066Z,98272
2018-04-11T07:08:54.857Z,98264
2018-04-11T07:11:00.081Z,98270
2018-04-11T07:13:05.681Z,98264
2018-04-11T07:15:11.660Z,98270
2018-04-11T07:17:17.386Z,98265
2018-04-11T07:19:23.596Z,98264
2018-04-11T07:21:28.966Z,98277
2018-04-11T07:23:34.875Z,98281
2018-04-11T07:25:40.524Z,98281
2018-04-11T07:27:45.826Z,98280
2018-04-11T07:29:51.731Z,98288
2018-04-11T07:31:58.179Z,98296
2018-04-11T07:34:03.450Z,98294
2018-04-11T07:36:08.775Z,98296
2018-04-11T07:38:14.365Z,98299
2018-04-11T07:40:21.051Z,98294
2018-04-11T07:42:26.895Z,98300
2018-04-11T07:44:32.941Z,98297
2018-04-11T07:46:38.154Z,98302
2018-04-11T07:48:44.746Z,98299
2018-04-11T07:50:50.405Z,98305
2018-04-11T07:52:56.296Z,98305
2018-04-11T07:55:02.438Z,98304
2018-04-11T07:57:07.790Z,98306
2018-04-11T07:59:13.798Z,98311
2018-04-11T08:01:19.066Z,98309
2018-04-11T08:03:24.981Z,98309
2018-04-11T08:05:30.478Z,98312
2018-04-11T08:07:36.155Z,98317
2018-04-11T08:09:41.523Z,98314
2018-04-11T08:11:46.886Z,98314
2018-04-11T08:13:53.177Z,98309
2018-04-11T08:15:58.605Z,98312
2018-04-11T08:18:03.900Z,98316
2018-04-11T08:20:10.665Z,98311
2018-04-11T08:22:21.658Z,98317
2018-04-11T08:24:27.095Z,98315
2018-04-11T08:26:32.971Z,98312
2018-04-11T08:28:38.418Z,98307
2018-04-11T08:30:43.761Z,98309
2018-04-11T08:32:49.638Z,98313
2018-04-11T08:34:54.965Z,98314
2018-04-11T08:37:00.926Z,98316
2018-04-11T08:39:07.580Z,98322
2018-04-11T08:41:12.947Z,98319
2018-04-11T08:43:18.307Z,98318
2018-04-11T08:45:23.890Z,98323
2018-04-11T08:47:29.550Z,98326
2018-04-11T08:49:37.778Z,98323
2018-04-11T08:51:43.566Z,98327
2018-04-11T08:53:49.077Z,98327
2018-04-11T08:55:54.404Z,98328
2018-04-11T08:57:59.741Z,98333
2018-04-11T09:00:05.559Z,98329
2018-04-11T09:02:10.849Z,98335
2018-04-11T09:04:16.500Z,98339
2018-04-11T09:06:22.106Z,98334
2018-04-11T09:08:27.902Z,98333
2018-04-11T09:10:33.286Z,98341
2018-04-11T09:12:38.523Z,98339
2018-04-11T09:14:44.053Z,98343
2018-04-11T09:16:49.375Z,98357
2018-04-11T09:18:54.709Z,98355
2018-04-11T09:21:00.410Z,98362
2018-04-11T09:23:05.697Z,98364
2018-04-11T09:25:11.789Z,98363
2018-04-11T09:27:17.942Z,98354
2018-04-11T09:29:23.165Z,98353
2018-04-11T09:31:29.265Z,98354
2018-04-11T09:33:34.881Z,98358
2018-04-11T09:35:40.194Z,98362
2018-04-11T09:37:45.486Z,98360
2018-04-11T09:39:51.354Z,98366
2018-04-11T09:41:56.784Z,98359
2018-04-11T09:44:02.802Z,98363
2018-04-11T09:46:09.002Z,98355
2018-04-11T09:48:14.313Z,98358
2018-04-11T09:50:20.178Z,98351
2018-04-11T09:52:25.808Z,98350
2018-04-11T09:54:31.188Z,98348
2018-04-11T09:56:36.507Z,98349
2018-04-11T09:58:42.164Z,98344
2018-04-11T10:00:51.547Z,98352
2018-04-11T10:03:00.793Z,98351
2018-04-11T10:05:06.473Z,98353
2018-04-11T10:07:11.754Z,98359
2018-04-11T10:09:17.178Z,98355
2018-04-11T10:11:22.762Z,98353
2018-04-11T10:13:28.377Z,98357
2018-04-11T10:15:33.625Z,98359
2018-04-11T10:17:39.308Z,98357
2018-04-11T10:19:45.027Z,98359
2018-04-11T10:21:50.614Z,98350
2018-04-11T10:23:56.458Z,98354
2018-04-11T10:26:01.929Z,98347
2018-04-11T10:28:07.298Z,98345
2018-04-11T10:30:12.970Z,98348
2018-04-11T10:32:18.326Z,98344
2018-04-11T10:34:23.574Z,98349
2018-04-11T10:36:29.388Z,98344
2018-04-11T10:38:34.673Z,98349
2018-04-11T10:40:40.050Z,98351
2018-04-11T10:42:46.306Z,98349
2018-04-11T10:44:51.603Z,98348
2018-04-11T10:46:56.988Z,98354
2018-04-11T10:49:02.526Z,98352
2018-04-11T10:51:08.028Z,98347
2018-04-11T10:53:13.328Z,98352
2018-04-11T10:55:23.087Z,98356
2018-04-11T10:57:28.518Z,98353
2018-04-11T10:59:33.905Z,98349
2018-04-11T11:01:39.855Z,98343
2018-04-11T11:03:45.750Z,98347
2018-04-11T11:05:51.959Z,98339
2018-04-11T11:07:57.610Z,98337
2018-04-11T11:10:03.288Z,98338
2018-04-11T11:12:08.850Z,98337
2018-04-11T11:14:14.638Z,98336
2018-04-11T11:16:19.880Z,98331
2018-04-11T11:18:25.199Z,98338
2018-04-11T11:20:30.806Z,98335
2018-04-11T11:22:36.307Z,98333
2018-04-11T11:24:41.629Z,98328
2018-04-11T11:26:47.201Z,98327
2018-04-11T11:28:52.847Z,98330
2018-04-11T11:30:58.046Z,98324
2018-04-11T11:33:03.663Z,98317
2018-04-11T11:35:09.191Z,98321
2018-04-11T11:37:14.613Z,98327
2018-04-11T11:39:20.413Z,98331
2018-04-11T11:41:25.778Z,98337
2018-04-11T11:43:31.580Z,98334
2018-04-11T11:45:37.151Z,98332
2018-04-11T11:47:42.512Z,98328
2018-04-11T11:49:47.935Z,98338
2018-04-11T11:51:53.548Z,98333
2018-04-11T11:53:58.999Z,98339
2018-04-11T11:56:04.277Z,98334
2018-04-11T11:58:09.911Z,98336
2018-04-11T12:00:15.754Z,98337
2018-04-11T12:02:21.398Z,98335
2018-04-11T12:04:27.122Z,98335
2018-04-11T12:06:32.457Z,98336
2018-04-11T12:08:37.822Z,98337
2018-04-11T12:10:43.467Z,98333
2018-04-11T12:12:48.723Z,98328
2018-04-11T12:14:54.106Z,98332
2018-04-11T12:16:59.720Z,98349
2018-04-11T12:19:05.005Z,98340
2018-04-11T12:21:10.338Z,98342
2018-04-11T12:23:15.869Z,98341
2018-04-11T12:25:21.182Z,98340
2018-04-11T12:27:26.483Z,98336
2018-04-11T12:29:32.099Z,98340
2018-04-11T12:31:37.347Z,98338
2018-04-11T12:33:43.632Z,98335
2018-04-11T12:35:49.213Z,98330
2018-04-11T12:37:54.542Z,98332
2018-04-11T12:39:59.983Z,98326
2018-04-11T12:42:05.640Z,98326
2018-04-11T12:44:10.978Z,98322
2018-04-11T12:46:18.554Z,98323
2018-04-11T12:48:24.230Z,98326
2018-04-11T12:50:29.493Z,98329
2018-04-11T12:52:35.370Z,98329
2018-04-11T12:54:41.082Z,98325
2018-04-11T12:56:46.381Z,98324
2018-04-11T12:58:51.730Z,98319
2018-04-11T13:00:57.278Z,98318
2018-04-11T13:03:02.834Z,98308
2018-04-11T13:05:08.371Z,98315
2018-04-11T13:07:14.106Z,98276
2018-04-11T13:09:19.640Z,98277
2018-04-11T13:11:25.113Z,98271
2018-04-11T13:13:30.743Z,98266
2018-04-11T13:15:36.370Z,98276
2018-04-11T13:17:41.855Z,98278
2018-04-11T13:19:47.902Z,98269
2018-04-11T13:21:53.417Z,98254
2018-04-11T13:23:58.834Z,98257
2018-04-11T13:26:04.617Z,98249
2018-04-11T13:28:09.890Z,98252
2018-04-11T13:30:15.294Z,98245
2018-04-11T13:32:20.937Z,98241
2018-04-11T13:34:26.557Z,98248
2018-04-11T13:36:31.899Z,98248
